Time;durP1;ratioP1;P1;durP2;ratioP2;P2;SDS_P1;SDS_P2;PMS_P1;PMS_P2;Temp;Humidity;BMP_temperature;BMP_pressure;BME280_temperature;BME280_humidity;BME280_pressure;Samples;Min_cycle;Max_cycle;Signal;HPM_P1;HPM_P2
2021/10/29 00:01:13;;;;;;;21.35;5.00;;;;;;;4.37;100.00;61425.28;5075526;28;20157;-70
2021/10/29 00:03:41;;;;;;;43.63;6.60;;;;;;;4.36;100.00;61424.22;5094707;28;20072;-70
2021/10/29 00:06:08;;;;;;;32.40;5.70;;;;;;;4.36;100.00;61423.88;5093755;28;20154;-70
2021/10/29 00:08:37;;;;;;;59.17;6.07;;;;;;;4.36;100.00;61423.41;5098440;28;20169;-68
2021/10/29 00:11:04;;;;;;;58.67;7.22;;;;;;;4.36;100.00;61423.41;5093742;28;20091;-71
2021/10/29 00:13:31;;;;;;;47.55;4.85;;;;;;;4.35;100.00;61422.84;5077528;28;20136;-70
2021/10/29 00:15:59;;;;;;;15.55;3.65;;;;;;;4.35;100.00;61423.00;5076314;28;20048;-71
2021/10/29 00:18:27;;;;;;;45.90;5.07;;;;;;;4.35;100.00;61422.13;5078641;28;20066;-70
2021/10/29 00:20:56;;;;;;;19.10;3.83;;;;;;;4.34;99.87;61421.44;5096576;28;20051;-70
2021/10/29 00:23:25;;;;;;;9.90;3.78;;;;;;;4.34;99.34;61421.00;5096154;28;20416;-71
2021/10/29 00:25:52;;;;;;;9.93;3.78;;;;;;;4.34;99.10;61420.84;5092921;28;20516;-70
2021/10/29 00:28:20;;;;;;;71.38;10.13;;;;;;;4.31;99.51;61418.03;5096416;28;20040;-70
2021/10/29 00:30:47;;;;;;;87.63;11.25;;;;;;;4.27;100.00;61414.25;5092631;28;20130;-70
2021/10/29 00:33:17;;;;;;;58.88;7.97;;;;;;;4.22;100.00;61409.47;5099591;28;20086;-69
2021/10/29 00:35:44;;;;;;;144.93;11.27;;;;;;;4.16;100.00;61403.25;5091071;28;20146;-69
2021/10/29 00:38:12;;;;;;;120.35;9.60;;;5.10;99.90;;;4.09;100.00;61396.34;5094620;28;20127;-69
2021/10/29 00:40:41;;;;;;;95.50;11.73;;;5.00;99.90;;;4.02;100.00;61388.91;5085712;28;20068;-68
2021/10/29 00:43:13;;;;;;;119.10;9.98;;;;;;;3.93;100.00;61380.16;5102153;28;20054;-69
2021/10/29 00:45:44;;;;;;;191.98;24.02;;;4.50;99.90;;;3.83;100.00;61370.03;5089030;28;20047;-68
2021/10/29 00:48:13;;;;;;;131.98;14.45;;;4.30;99.90;;;3.74;100.00;61360.28;5088657;28;20396;-69
2021/10/29 00:50:41;;;;;;;230.45;22.20;;;4.20;99.90;;;3.64;100.00;61350.56;5083133;28;20474;-71
2021/10/29 00:53:09;;;;;;;30.00;5.70;;;4.10;99.90;;;3.56;100.00;61341.88;5103274;28;20131;-71
2021/10/29 00:55:36;;;;;;;220.45;16.27;;;4.00;99.90;;;3.48;100.00;61333.66;5045346;28;20040;-71
2021/10/29 00:58:03;;;;;;;35.33;7.40;;;3.90;99.90;;;3.41;100.00;61326.06;5076883;28;20587;-71
2021/10/29 01:00:30;;;;;;;51.28;8.15;;;3.70;99.90;;;3.34;100.00;61319.25;5078221;28;20135;-71
2021/10/29 01:02:58;;;;;;;137.75;14.13;;;3.70;99.90;;;3.28;100.00;61312.50;5088104;28;20513;-70
2021/10/29 01:05:26;;;;;;;31.00;6.45;;;3.80;99.90;;;3.22;100.00;61307.13;5076773;28;20110;-70
2021/10/29 01:07:55;;;;;;;9.30;3.45;;;3.80;99.90;;;3.19;100.00;61303.53;5057624;28;20105;-71
2021/10/29 01:10:22;;;;;;;13.15;4.22;;;3.90;99.90;;;3.16;100.00;61301.25;5082199;28;20127;-70
2021/10/29 01:12:49;;;;;;;19.25;4.32;;;3.90;99.90;;;3.14;100.00;61299.19;5078695;28;20045;-71
2021/10/29 01:15:16;;;;;;;57.00;7.35;;;3.90;99.90;;;3.11;100.00;61296.31;5074764;28;20102;-70
2021/10/29 01:17:43;;;;;;;73.88;8.13;;;4.00;99.90;;;3.07;100.00;61292.38;5077724;28;20132;-70
2021/10/29 01:20:10;;;;;;;125.20;10.75;;;3.90;99.90;;;3.02;100.00;61287.38;5077782;28;20080;-70
2021/10/29 01:22:38;;;;;;;66.03;7.43;;;3.80;99.90;;;2.98;100.00;61282.50;5085565;28;20131;-71
2021/10/29 01:25:06;;;;;;;20.52;4.57;;;3.70;99.90;;;2.94;100.00;61278.72;5072856;28;20048;-70
2021/10/29 01:27:33;;;;;;;126.53;11.18;;;3.60;99.90;;;2.90;100.00;61274.63;5067694;28;20046;-70
2021/10/29 01:30:00;;;;;;;74.78;9.98;;;3.60;99.90;;;2.85;100.00;61268.91;5080313;28;20056;-70
2021/10/29 01:32:27;;;;;;;35.20;6.75;;;3.50;99.90;;;2.78;100.00;61262.19;5083558;28;20468;-71
2021/10/29 01:34:54;;;;;;;9.50;4.00;;;3.40;99.90;;;2.73;100.00;61257.34;5084884;28;20164;-70
2021/10/29 01:37:21;;;;;;;9.98;5.38;;;3.40;99.90;;;2.71;100.00;61255.22;5076819;28;20151;-70
2021/10/29 01:39:49;;;;;;;29.33;5.53;;;3.50;99.90;;;2.70;100.00;61254.16;5048175;28;20079;-70
2021/10/29 01:42:16;;;;;;;53.90;7.90;;;3.60;99.90;;;2.69;100.00;61252.66;5088788;28;20052;-70
2021/10/29 01:44:44;;;;;;;16.08;5.00;;;3.60;99.90;;;2.67;100.00;61251.47;5067254;28;20083;-71
2021/10/29 01:47:11;;;;;;;6.13;3.60;;;3.70;99.90;;;2.66;100.00;61249.53;5080904;28;20123;-71
2021/10/29 01:49:40;;;;;;;25.45;4.90;;;3.60;99.90;;;2.66;100.00;61249.22;5071023;28;20041;-71
2021/10/29 01:52:08;;;;;;;91.25;6.30;;;3.70;99.90;;;2.66;100.00;61249.53;5083282;28;20158;-70
2021/10/29 01:54:35;;;;;;;123.35;8.20;;;3.70;99.90;;;2.66;100.00;61249.59;5078332;28;20075;-70
2021/10/29 01:57:03;;;;;;;301.90;13.27;;;3.80;99.90;;;2.65;100.00;61249.03;5081181;28;20130;-71
2021/10/29 01:59:30;;;;;;;250.68;11.18;;;3.70;99.90;;;2.65;100.00;61248.34;5085872;28;20052;-71
2021/10/29 02:01:57;;;;;;;106.90;7.75;;;3.70;99.90;;;2.64;100.00;61247.41;5083497;28;20055;-71
2021/10/29 02:04:24;;;;;;;354.42;16.05;;;3.70;99.90;;;2.63;100.00;61246.59;5087272;28;20056;-70
2021/10/29 02:06:51;;;;;;;349.67;16.25;;;3.70;99.90;;;2.61;100.00;61245.41;5066743;28;20172;-71
2021/10/29 02:09:18;;;;;;;553.58;24.55;;;3.60;99.90;;;2.61;100.00;61244.50;5088979;28;20075;-71
2021/10/29 02:11:45;;;;;;;659.08;27.25;;;3.70;99.90;;;2.62;100.00;61245.47;5083085;28;20123;-71
2021/10/29 02:14:12;;;;;;;535.70;29.90;;;3.80;99.90;;;2.63;100.00;61246.81;5081327;28;20161;-70
2021/10/29 02:16:40;;;;;;;447.42;19.33;;;4.00;99.90;;;2.66;100.00;61248.94;5088196;28;20040;-71
2021/10/29 02:19:07;;;;;;;443.73;18.48;;;4.10;99.90;;;2.68;100.00;61251.34;5061821;28;20097;-70
2021/10/29 02:21:35;;;;;;;490.10;20.77;;;4.20;99.90;;;2.70;100.00;61253.50;5087670;28;20068;-70
2021/10/29 02:24:02;;;;;;;485.88;17.33;;;4.20;99.90;;;2.72;100.00;61255.16;5071179;28;20040;-70
2021/10/29 02:26:29;;;;;;;267.45;13.45;;;4.20;99.90;;;2.73;100.00;61256.38;5087571;28;20127;-70
2021/10/29 02:28:58;;;;;;;459.67;18.52;;;4.20;99.90;;;2.74;100.00;61257.59;5092475;28;20407;-70
2021/10/29 02:31:26;;;;;;;359.10;15.68;;;4.20;99.90;;;2.76;100.00;61259.19;5086066;28;20040;-70
2021/10/29 02:33:53;;;;;;;308.67;11.82;;;4.20;99.90;;;2.77;100.00;61260.72;5070409;28;20097;-70
2021/10/29 02:36:22;;;;;;;124.47;5.68;;;4.20;99.90;;;2.78;100.00;61262.38;5086673;28;20114;-70
2021/10/29 02:38:50;;;;;;;132.68;6.72;;;4.20;99.90;;;2.80;100.00;61264.09;5091069;28;20068;-70
2021/10/29 02:41:17;;;;;;;52.08;3.60;;;4.20;99.90;;;2.82;100.00;61265.41;5072679;28;20067;-70
2021/10/29 02:43:48;;;;;;;311.10;11.88;;;4.20;99.90;;;2.82;100.00;61266.38;5083898;28;20083;-70
2021/10/29 02:46:15;;;;;;;322.95;10.38;;;4.20;99.90;;;2.81;100.00;61265.28;5103268;28;20079;-70
2021/10/29 02:48:42;;;;;;;93.88;4.50;;;4.00;99.90;;;2.81;100.00;61264.75;5061625;28;20112;-70
2021/10/29 02:51:10;;;;;;;184.15;8.45;;;4.00;99.90;;;2.80;100.00;61263.72;5078641;28;20080;-70
2021/10/29 02:53:37;;;;;;;16.88;2.22;;;4.00;99.90;;;2.79;100.00;61263.50;5085661;28;20067;-70
2021/10/29 02:56:07;;;;;;;62.20;4.20;;;4.00;99.90;;;2.79;100.00;61263.38;5061653;28;20076;-70
2021/10/29 02:58:35;;;;;;;73.43;3.17;;;4.00;99.90;;;2.79;100.00;61263.09;5085853;28;20097;-70
2021/10/29 03:01:02;;;;;;;112.47;7.50;;;4.00;99.90;;;2.76;100.00;61260.00;5083349;28;20099;-70
2021/10/29 03:03:30;;;;;;;147.10;8.85;;;3.80;99.90;;;2.70;100.00;61254.47;5097247;28;20597;-69
2021/10/29 03:05:57;;;;;;;109.75;10.40;;;3.60;99.90;;;2.63;100.00;61247.19;5095965;28;20048;-70
2021/10/29 03:08:24;;;;;;;89.50;11.25;;;3.50;99.90;;;2.57;100.00;61240.72;5072753;28;20136;-70
2021/10/29 03:10:52;;;;;;;116.85;15.93;;;3.50;99.90;;;2.51;100.00;61234.78;5053751;28;20072;-70
2021/10/29 03:13:21;;;;;;;56.47;9.63;;;3.30;99.90;;;2.45;100.00;61228.72;5069933;28;20437;-70
2021/10/29 03:15:49;;;;;;;158.70;19.60;;;3.20;99.90;;;2.39;100.00;61222.31;5081626;28;20082;-70
2021/10/29 03:18:18;;;;;;;152.23;25.85;;;3.20;99.90;;;2.33;100.00;61216.50;5088635;28;20088;-70
2021/10/29 03:20:47;;;;;;;75.60;16.33;;;3.10;99.90;;;2.28;100.00;61210.97;5088376;28;20052;-70
2021/10/29 03:23:16;;;;;;;33.50;10.65;;;3.10;99.90;;;2.23;100.00;61205.53;5069478;28;20072;-70
2021/10/29 03:25:44;;;;;;;19.58;8.23;;;3.10;99.90;;;2.17;100.00;61200.50;5075340;28;20139;-70
2021/10/29 03:28:12;;;;;;;12.10;5.28;;;3.10;99.90;;;2.13;100.00;61195.59;5091195;28;20060;-69
2021/10/29 03:30:39;;;;;;;13.50;5.30;;;3.00;99.90;;;2.08;100.00;61190.19;5068201;28;20036;-70
2021/10/29 03:33:08;;;;;;;12.77;5.70;;;;;;;2.03;100.00;61185.00;5065125;28;20045;-70
2021/10/29 03:35:36;;;;;;;12.95;5.68;;;;;;;1.98;100.00;61180.25;5095536;28;20420;-70
2021/10/29 03:51:50;;;;;;;9.25;4.45;;;;;;;1.88;100.00;61169.66;5083273;28;20127;-70
2021/10/29 03:53:54;;;;;;;8.55;4.90;;;;;;;1.84;100.00;61165.75;5076292;28;20083;-70
2021/10/29 03:56:25;;;;;;;7.95;3.80;;;;;;;1.80;100.00;61162.13;5065084;28;20092;-70
2021/10/29 03:59:02;;;;;;;5.88;3.03;;;;;;;1.78;100.00;61159.72;5090833;28;20133;-70
2021/10/29 04:01:33;;;;;;;6.57;3.70;;;;;;;1.74;100.00;61155.94;5084439;28;20045;-70
2021/10/29 04:04:04;;;;;;;7.05;4.22;;;;;;;1.69;100.00;61150.81;5083555;28;20181;-69
2021/10/29 04:06:43;;;;;;;11.93;4.57;;;;;;;1.64;100.00;61145.81;5089339;28;20079;-70
2021/10/29 04:09:14;;;;;;;8.40;4.35;;;;;;;1.60;100.00;61141.94;5078159;28;20056;-70
2021/10/29 04:11:42;;;;;;;6.82;3.58;;;;;;;1.57;100.00;61138.59;5082974;28;20068;-70
2021/10/29 04:14:12;;;;;;;11.60;5.43;;;;;;;1.53;100.00;61134.66;5086611;28;20131;-70
2021/10/29 04:16:40;;;;;;;7.28;4.93;;;2.40;99.90;;;1.50;100.00;61131.00;5084539;28;20056;-70
2021/10/29 04:19:09;;;;;;;9.10;4.75;;;2.50;99.90;;;1.46;100.00;61127.53;5085786;28;20125;-70
2021/10/29 04:21:37;;;;;;;12.50;6.20;;;2.40;99.90;;;1.43;100.00;61124.16;5072199;28;20087;-70
2021/10/29 04:24:06;;;;;;;11.65;6.55;;;2.40;99.90;;;1.39;100.00;61120.81;5068900;28;20472;-70
2021/10/29 04:26:35;;;;;;;12.45;7.57;;;2.40;99.90;;;1.36;100.00;61117.31;5060332;28;20059;-70
2021/10/29 04:29:13;;;;;;;11.35;6.68;;;2.50;99.90;;;1.32;100.00;61113.84;5082086;28;20124;-69
2021/10/29 04:31:49;;;;;;;14.07;7.80;;;;;;;1.30;100.00;61111.25;5077774;28;20048;-70
2021/10/29 04:34:25;;;;;;;11.77;8.05;;;;;;;1.28;100.00;61109.09;5063419;28;20071;-70
2021/10/29 04:36:55;;;;;;;10.15;5.90;;;;;;;1.27;100.00;61108.53;5083249;28;20120;-70
2021/10/29 04:39:22;;;;;;;11.73;6.45;;;;;;;1.26;100.00;61107.63;5088658;28;20427;-70
2021/10/29 04:41:50;;;;;;;14.48;6.45;;;2.50;99.90;;;1.26;100.00;61107.47;5067119;28;20127;-70
2021/10/29 04:44:22;;;;;;;11.98;5.60;;;2.60;99.90;;;1.25;100.00;61106.97;5085538;28;20127;-69
2021/10/29 04:46:52;;;;;;;10.70;5.78;;;2.60;99.90;;;1.24;100.00;61105.88;5090381;28;20044;-70
2021/10/29 04:49:19;;;;;;;17.02;8.63;;;2.60;99.90;;;1.24;100.00;61105.88;5070992;28;20044;-69
2021/10/29 04:51:46;;;;;;;14.35;7.15;;;2.70;99.90;;;1.25;100.00;61106.81;5086810;28;20040;-70
2021/10/29 04:54:13;;;;;;;16.85;9.07;;;2.60;99.90;;;1.28;100.00;61108.81;5072046;28;20390;-70
2021/10/29 04:56:43;;;;;;;14.15;6.53;;;2.70;99.90;;;1.29;99.95;61110.88;5070828;28;20462;-70
2021/10/29 04:59:13;;;;;;;16.05;8.43;;;2.80;99.90;;;1.31;99.73;61112.22;5086698;28;20052;-70
2021/10/29 05:01:39;;;;;;;15.25;8.50;;;2.80;99.90;;;1.30;100.00;61111.72;5090263;28;20095;-69
2021/10/29 05:04:07;;;;;;;15.95;7.78;;;2.80;99.90;;;1.29;100.00;61110.22;5055080;28;20126;-70
2021/10/29 05:06:34;;;;;;;13.25;6.57;;;2.70;99.90;;;1.27;100.00;61107.88;5076475;28;20102;-70
2021/10/29 05:09:01;;;;;;;9.25;5.10;;;2.60;99.90;;;1.25;100.00;61106.56;5085322;28;20048;-70
2021/10/29 05:11:28;;;;;;;13.02;5.68;;;2.50;99.90;;;1.24;100.00;61105.94;5082137;28;20143;-70
2021/10/29 05:13:55;;;;;;;14.48;5.22;;;;;;;1.24;100.00;61105.81;5063408;28;20460;-70
2021/10/29 05:16:23;;;;;;;9.90;5.53;;;;;;;1.23;100.00;61105.13;5062814;28;20055;-69
2021/10/29 05:18:56;;;;;;;15.10;7.40;;;;;;;1.23;100.00;61105.00;5087873;28;20044;-70
2021/10/29 05:21:23;;;;;;;18.38;7.55;;;2.40;99.90;;;1.23;99.95;61104.84;5086550;28;20071;-70
2021/10/29 05:23:50;;;;;;;17.98;9.20;;;2.50;99.90;;;1.24;99.80;61105.38;5081166;28;20109;-70
2021/10/29 05:26:17;;;;;;;18.33;8.48;;;2.50;99.90;;;1.25;99.03;61106.84;5087644;28;20501;-69
2021/10/29 05:28:44;;;;;;;18.55;9.20;;;2.60;99.90;;;1.26;98.17;61108.25;5085106;28;20045;-70
2021/10/29 05:31:11;;;;;;;16.83;7.97;;;2.70;99.90;;;1.28;98.11;61110.03;5069858;28;20040;-70
2021/10/29 05:33:39;;;;;;;16.55;8.07;;;2.80;99.90;;;1.29;98.07;61111.22;5084361;28;20050;-70
2021/10/29 05:36:06;;;;;;;14.48;8.38;;;2.80;99.90;;;1.30;98.16;61112.19;5090291;28;20494;-70
2021/10/29 05:38:33;;;;;;;13.52;6.60;;;2.70;99.90;;;1.31;98.40;61113.81;5080537;28;20040;-70
2021/10/29 05:41:01;;;;;;;12.85;6.35;;;2.80;99.90;;;1.32;98.02;61114.91;5060200;28;20048;-70
2021/10/29 05:43:29;;;;;;;13.25;6.80;;;2.90;99.90;;;1.35;96.86;61117.03;5055365;28;20188;-70
2021/10/29 05:45:56;;;;;;;13.68;7.63;;;2.90;99.90;;;1.35;97.53;61116.94;5092608;28;20473;-69
2021/10/29 05:48:23;;;;;;;13.43;7.72;;;2.90;99.90;;;1.35;97.59;61117.22;5097055;28;20071;-69
2021/10/29 05:50:51;;;;;;;14.27;6.53;;;2.90;99.90;;;1.37;97.04;61118.38;5082339;28;20052;-69
2021/10/29 05:55:55;;;;;;;12.85;5.82;;;2.80;99.90;;;1.40;96.64;61121.25;5094766;28;20044;-70
2021/10/29 05:58:23;;;;;;;15.85;7.50;;;2.80;99.90;;;1.40;97.24;61122.03;5081873;28;20581;-70
2021/10/29 06:00:55;;;;;;;12.88;6.72;;;2.80;99.90;;;1.42;96.23;61123.63;5091132;28;20050;-70
2021/10/29 06:03:23;;;;;;;36.58;18.38;;;2.80;99.90;;;1.44;96.11;61125.22;5087022;28;20139;-69
2021/10/29 06:05:51;;;;;;;42.10;22.45;;;2.80;99.90;;;1.45;95.61;61126.81;5072016;28;20123;-70
2021/10/29 06:08:19;;;;;;;51.28;24.98;;;2.90;99.90;;;1.46;95.70;61127.66;5075040;28;20076;-69
2021/10/29 06:10:46;;;;;;;140.48;73.15;;;2.90;99.90;;;1.44;97.58;61125.22;5090952;28;20078;-69
2021/10/29 06:13:14;;;;;;;66.68;34.60;;;2.80;99.90;;;1.42;98.37;61123.47;5092864;28;20076;-70
2021/10/29 06:15:43;;;;;;;75.05;38.80;;;2.70;99.90;;;1.40;99.80;61120.94;5073177;28;20091;-69
2021/10/29 06:18:12;;;;;;;25.92;13.40;;;2.60;99.90;;;1.38;99.59;61119.03;5093472;28;20071;-70
2021/10/29 06:20:39;;;;;;;23.00;12.18;;;2.50;99.90;;;1.37;99.07;61117.91;5089746;28;20070;-69
2021/10/29 06:23:08;;;;;;;25.15;12.60;;;2.50;99.90;;;1.36;98.92;61116.97;5084514;28;20466;-70
2021/10/29 06:25:42;;;;;;;25.98;14.00;;;2.50;99.90;;;1.35;99.05;61115.88;5089286;28;20577;-69
2021/10/29 06:28:20;;;;;;;15.95;9.07;;;2.50;99.90;;;1.34;98.34;61114.78;5092973;28;20109;-70
2021/10/29 06:30:47;;;;;;;23.48;12.27;;;2.60;99.90;;;1.33;98.76;61114.16;5091939;28;20052;-69
2021/10/29 06:33:20;;;;;;;13.77;7.80;;;2.60;99.90;;;1.34;98.05;61114.69;5079763;28;20080;-70
2021/10/29 06:35:48;;;;;;;16.77;8.50;;;2.60;99.90;;;1.35;97.61;61115.94;5092298;28;20123;-70
2021/10/29 06:38:16;;;;;;;26.13;11.60;;;2.60;99.90;;;1.35;97.85;61116.69;5087574;28;20048;-69
2021/10/29 06:40:45;;;;;;;23.80;11.18;;;2.60;99.90;;;1.37;97.39;61118.56;5083231;28;20044;-69
2021/10/29 06:43:28;;;;;;;21.70;10.60;;;;;;;1.38;96.82;61120.19;5092500;28;20486;-69
2021/10/29 06:46:18;;;;;;;21.65;9.68;;;;;;;1.40;96.75;61121.81;5069647;28;20120;-69
2021/10/29 06:59:30;;;;;;;23.25;10.90;;;3.20;99.90;;;1.53;96.03;61134.66;5086712;28;20521;-69
2021/10/29 07:40:07;;;;;;;27.55;12.25;;;4.00;99.90;;;2.11;94.46;61193.47;5075565;28;20181;-69
2021/10/29 07:42:49;;;;;;;22.77;12.20;;;4.10;99.90;;;2.14;94.61;61197.38;5073336;28;20045;-69
2021/10/29 07:45:17;;;;;;;27.25;14.60;;;4.10;99.90;;;2.18;94.74;61201.44;5079330;28;20420;-69
2021/10/29 07:47:46;;;;;;;28.20;15.93;;;4.20;99.90;;;2.22;94.87;61205.16;5088266;28;20105;-69
2021/10/29 07:50:16;;;;;;;26.88;15.18;;;4.10;99.90;;;2.26;95.26;61210.03;5085745;28;20106;-69
2021/10/29 07:52:46;;;;;;;23.50;13.55;;;4.20;99.90;;;2.32;95.14;61215.41;5073060;28;20082;-69
2021/10/29 07:55:16;;;;;;;25.80;15.63;;;4.40;99.90;;;2.38;95.53;61221.91;5072598;28;20125;-69
2021/10/29 07:57:46;;;;;;;22.95;13.18;;;4.50;99.90;;;2.44;95.51;61228.66;5074803;28;20071;-69
2021/10/29 08:00:17;;;;;;;19.98;11.60;;;4.70;99.90;;;2.51;95.71;61235.50;5080995;28;20082;-69
2021/10/29 08:02:47;;;;;;;22.88;12.85;;;4.70;99.90;;;2.59;96.30;61243.06;5080350;28;20094;-69
2021/10/29 08:05:14;;;;;;;23.33;12.90;;;4.90;99.90;;;2.66;97.97;61250.59;5085528;28;20057;-69
2021/10/29 08:07:41;;;;;;;27.60;14.77;;;5.00;99.90;;;2.74;98.18;61258.44;5076533;28;20101;-69
2021/10/29 08:10:10;;;;;;;16.50;10.10;;;5.10;99.90;;;2.82;98.19;61267.00;5074839;28;20052;-69
2021/10/29 08:12:40;;;;;;;19.65;11.45;;;5.20;99.90;;;2.91;98.11;61276.19;5089338;28;20127;-69
2021/10/29 08:15:09;;;;;;;15.77;9.63;;;5.50;99.90;;;3.01;98.10;61285.75;5069696;28;20498;-69
2021/10/29 08:17:37;;;;;;;16.75;9.45;;;5.70;99.90;;;3.11;98.33;61295.88;5088211;28;20194;-69
2021/10/29 08:20:09;;;;;;;21.88;11.52;;;5.90;99.90;;;3.21;96.61;61306.69;5085630;28;20377;-69
2021/10/29 08:22:38;;;;;;;15.02;9.93;;;6.00;99.90;;;3.32;96.20;61317.44;5072088;28;20090;-70
2021/10/29 08:25:07;;;;;;;17.30;10.93;;;6.10;99.90;;;3.43;95.97;61328.22;5070956;28;20080;-69
2021/10/29 08:27:34;;;;;;;19.08;10.82;;;6.30;99.90;;;3.54;95.84;61339.59;5068460;28;20135;-70
2021/10/29 08:30:03;;;;;;;24.20;14.15;;;;;;;3.65;95.40;61350.78;5084156;28;20075;-70
2021/10/29 08:32:31;;;;;;;21.48;13.77;;;;;;;3.77;95.75;61362.81;5084797;28;20043;-70
2021/10/29 08:35:00;;;;;;;25.30;12.85;;;;;;;3.89;95.99;61375.19;5070548;28;20076;-70
2021/10/29 08:37:31;;;;;;;20.35;12.82;;;;;;;4.02;96.01;61388.16;5090943;28;20083;-69
2021/10/29 08:40:00;;;;;;;20.25;10.90;;;;;;;4.15;95.94;61401.69;5088981;28;20142;-70
2021/10/29 08:42:28;;;;;;;19.95;10.73;;;;;;;4.29;97.12;61416.59;5083854;28;20123;-70
2021/10/29 08:44:56;;;;;;;18.58;8.95;;;;;;;4.43;98.25;61430.97;5071020;28;20043;-70
2021/10/29 08:47:25;;;;;;;13.70;7.57;;;;;;;4.57;100.00;61445.59;5089714;28;20094;-69
2021/10/29 08:49:56;;;;;;;12.73;7.93;;;;;;;4.72;99.98;61460.88;5083690;28;20045;-69
2021/10/29 08:52:24;;;;;;;15.07;9.52;;;;;;;4.87;100.00;61475.84;5091376;28;20477;-70
2021/10/29 08:54:54;;;;;;;12.18;8.32;;;;;;;5.02;100.00;61491.28;5086981;28;20097;-69
2021/10/29 08:57:22;;;;;;;18.02;10.35;;;;;;;5.17;100.00;61506.72;5089551;28;20143;-69
2021/10/29 08:59:52;;;;;;;14.40;7.28;;;;;;;5.32;100.00;61522.03;5089718;28;20135;-70
2021/10/29 09:02:29;;;;;;;11.45;7.13;;;;;;;5.47;100.00;61537.44;5086323;28;20181;-69
2021/10/29 09:33:00;;;;;;;13.15;8.23;;;;;;;7.57;80.54;61753.38;5072829;28;20036;-69
2021/10/29 09:35:36;;;;;;;14.77;8.93;;;;;;;7.76;80.71;61772.47;5089615;28;20067;-69
2021/10/29 09:38:12;;;;;;;12.93;8.20;;;;;;;7.93;80.96;61790.19;5088340;28;20084;-69
2021/10/29 09:40:53;;;;;;;13.25;8.50;;;;;;;8.11;80.26;61808.53;5091813;28;20674;-70
2021/10/29 09:43:23;;;;;;;16.27;8.23;;;11.80;99.90;;;8.29;78.56;61826.84;5086978;28;20063;-70
2021/10/29 09:45:58;;;;;;;12.73;9.07;;;12.00;99.90;;;8.46;79.08;61844.47;5057850;28;20521;-69
2021/10/29 09:48:39;;;;;;;15.93;7.47;;;12.10;99.90;;;8.63;77.87;61861.56;5071854;28;20559;-70
2021/10/29 09:51:10;;;;;;;15.57;8.10;;;12.20;99.90;;;8.78;77.16;61877.63;5088859;28;20166;-70
2021/10/29 09:56:13;;;;;;;13.52;7.32;;;12.40;99.90;;;9.10;75.15;61910.19;5087190;28;20080;-70
2021/10/29 09:58:52;;;;;;;12.27;7.18;;;12.60;99.90;;;9.25;75.44;61925.25;5082524;28;20067;-69
2021/10/29 10:01:22;;;;;;;12.65;7.05;;;;;;;9.39;74.49;61939.97;5085822;28;20234;-70
2021/10/29 10:03:51;;;;;;;11.05;6.95;;;;;;;9.53;74.44;61954.66;5089974;28;20531;-70
2021/10/29 10:06:23;;;;;;;12.77;7.43;;;;;;;9.66;76.84;61967.84;5088542;28;20153;-70
2021/10/29 10:08:55;;;;;;;10.85;6.53;;;;;;;9.78;76.22;61980.25;5089811;28;20440;-69
2021/10/29 10:11:27;;;;;;;9.80;6.32;;;;;;;9.90;75.08;61993.31;5073971;28;20465;-69
2021/10/29 10:13:55;;;;;;;11.18;6.15;;;;;;;10.03;76.28;62006.38;5071106;28;20509;-70
2021/10/29 10:16:28;;;;;;;9.75;5.97;;;;;;;10.15;75.19;62018.97;5072273;28;20513;-70
2021/10/29 10:18:57;;;;;;;12.02;5.40;;;;;;;10.29;72.35;62033.00;5070568;28;20109;-70
2021/10/29 10:21:29;;;;;;;11.02;5.53;;;;;;;10.41;75.32;62045.25;5074467;28;20127;-70
2021/10/29 10:24:00;;;;;;;14.20;5.18;;;;;;;10.53;72.26;62057.94;5089960;28;20048;-70
2021/10/29 10:43:57;;;;;;;8.35;4.50;;;;;;;11.47;69.74;62155.63;5091894;28;20128;-69
2021/10/29 10:46:21;;;;;;;8.50;4.53;;;;;;;11.60;68.15;62169.13;5084223;28;20132;-70
2021/10/29 10:49:13;;;;;;;8.60;4.40;;;;;;;11.72;66.15;62181.34;5091507;28;20127;-69
2021/10/29 10:51:54;;;;;;;9.60;4.45;;;;;;;11.84;66.24;62193.47;5068749;28;20056;-70
2021/10/29 10:54:32;;;;;;;6.80;3.45;;;;;;;11.96;66.13;62205.75;5083747;28;20139;-70
2021/10/29 10:57:19;;;;;;;8.90;4.40;;;;;;;12.08;64.60;62218.34;5085015;28;20113;-70
2021/10/29 11:05:41;;;;;;;8.10;3.95;;;;;;;12.41;62.87;62252.50;5089913;28;20071;-69
2021/10/29 11:11:04;;;;;;;8.98;3.33;;;;;;;12.61;62.55;62273.09;5085488;28;20469;-68
2021/10/29 11:14:03;;;;;;;9.43;3.60;;;;;;;12.71;62.63;62284.28;5081754;28;20518;-69
2021/10/29 11:16:38;;;;;;;11.15;3.80;;;;;;;12.82;61.00;62294.91;5056561;28;20135;-69
2021/10/29 11:19:15;;;;;;;9.32;3.38;;;;;;;12.91;62.07;62305.34;5070720;28;20474;-69
2021/10/29 11:21:49;;;;;;;6.05;2.80;;;;;;;13.01;60.56;62315.59;5054391;28;20072;-69
2021/10/29 11:24:32;;;;;;;10.98;3.67;;;;;;;13.11;61.48;62325.50;5070165;28;20139;-68
2021/10/29 11:27:01;;;;;;;;;;;;;;;13.19;61.88;62334.50;5093044;28;20119;-69
2021/10/29 11:29:30;;;;;;;4.88;2.90;;;;;;;13.29;61.33;62344.41;5084560;28;20018;-69
2021/10/29 11:31:58;;;;;;;4.85;2.70;;;;;;;13.38;60.64;62354.31;5067941;28;20098;-70
2021/10/29 11:34:26;;;;;;;7.97;2.88;;;;;;;13.48;60.08;62364.47;5067921;28;20044;-69
2021/10/29 11:36:54;;;;;;;9.90;3.40;;;;;;;13.56;60.75;62372.53;5087250;28;20127;-69
2021/10/29 11:39:25;;;;;;;7.90;3.40;;;;;;;13.64;59.98;62380.88;5089153;28;20043;-69
2021/10/29 11:41:53;;;;;;;5.15;2.92;;;;;;;13.70;60.08;62387.41;5073544;28;20072;-69
2021/10/29 11:44:25;;;;;;;7.40;2.85;;;;;;;13.77;59.93;62395.34;5087745;28;20044;-69
2021/10/29 11:47:06;;;;;;;5.22;2.85;;;;;;;13.84;59.11;62402.22;5087620;28;20522;-69
2021/10/29 11:49:34;;;;;;;6.30;3.03;;;;;;;13.90;59.66;62409.50;5067767;28;20103;-69
2021/10/29 11:52:06;;;;;;;5.68;2.67;;;16.20;99.90;;;13.97;59.18;62415.78;5100839;28;20121;-69
2021/10/29 11:54:36;;;;;;;4.53;2.33;;;16.10;99.90;;;14.03;60.62;62422.03;5087374;28;20490;-69
2021/10/29 12:00:35;;;;;;;6.88;2.90;;;16.20;99.90;;;14.13;59.45;62432.94;5089428;28;20559;-69
2021/10/29 12:06:10;;;;;;;4.63;2.58;;;16.20;99.90;;;14.22;58.41;62442.50;5086564;28;20036;-69
2021/10/29 12:08:38;;;;;;;9.43;2.42;;;16.20;99.90;;;14.27;58.49;62447.28;5084078;28;20052;-69
2021/10/29 12:11:08;;;;;;;5.63;2.67;;;16.30;99.90;;;14.31;59.28;62451.94;5085004;28;20044;-69
2021/10/29 12:13:41;;;;;;;7.75;2.92;;;16.30;99.90;;;14.37;59.01;62458.16;5078601;28;20072;-69
2021/10/29 12:16:23;;;;;;;6.43;2.20;;;16.30;99.90;;;14.42;58.54;62463.56;5084961;28;20072;-68
2021/10/29 12:19:05;;;;;;;4.15;2.22;;;16.40;99.90;;;14.47;59.13;62468.03;5078987;28;20123;-68
2021/10/29 12:21:40;;;;;;;5.60;2.35;;;16.30;99.90;;;14.52;59.38;62473.25;5094750;28;20476;-68
2021/10/29 12:24:13;;;;;;;8.68;2.58;;;16.30;99.90;;;14.56;58.84;62477.38;5084422;28;20135;-69
2021/10/29 12:26:40;;;;;;;5.45;2.22;;;16.40;99.90;;;14.60;58.49;62481.91;5071550;28;20127;-69
2021/10/29 12:29:16;;;;;;;5.32;2.17;;;16.40;99.90;;;14.64;59.52;62486.16;5083746;28;20080;-69
2021/10/29 13:02:56;;;;;;;6.60;2.55;;;17.20;99.90;;;15.17;56.22;62540.47;5071762;28;20045;-69
2021/10/29 13:05:23;;;;;;;5.85;2.95;;;17.30;99.90;;;15.21;56.88;62545.06;5093077;28;20625;-69
2021/10/29 13:07:50;;;;;;;4.90;2.20;;;17.40;99.90;;;15.28;56.03;62552.22;5078768;28;20131;-69
2021/10/29 13:10:18;;;;;;;5.50;2.13;;;17.50;99.90;;;15.33;55.48;62558.31;5096862;28;20143;-69
2021/10/29 13:15:16;;;;;;;5.55;2.00;;;19.70;99.90;;;15.55;52.34;62580.13;5088556;28;20552;-69
2021/10/29 13:18:21;;;;;;;3.92;1.83;;;21.00;99.90;;;15.69;51.06;62594.72;5068860;28;20055;-69
2021/10/29 13:28:24;;;;;;;4.30;1.60;;;23.40;95.70;;;16.33;47.35;62661.66;5087428;28;20076;-68
2021/10/29 14:03:18;;;;;;;4.72;1.90;;;19.30;99.90;;;16.98;49.88;62728.59;5089504;28;20079;-68
2021/10/29 14:30:19;;;;;;;2.95;1.33;;;22.90;99.90;;;17.48;44.36;62780.63;5072238;28;20052;-69
2021/10/29 14:35:32;;;;;;;2.58;1.30;;;23.60;99.90;;;17.68;42.93;62801.75;5077005;28;20045;-70
2021/10/29 14:45:33;;;;;;;4.93;1.10;;;25.20;98.20;;;18.21;40.10;62857.72;5086851;28;20068;-70
2021/10/29 15:31:25;;;;;;;6.45;3.55;;;20.30;98.60;;;18.53;47.37;62891.00;5084805;28;20138;-70